Terminal Aerodrome Forecast
Issued by NWS

Home | Current Version | Previous Version | Text Only | Print | Product List | Glossary On
Versions: 1 2 3 4 5 6 7 8 9 10 11 12 13 14 15 16 17 18 19 20 21 22 23 24 25 26 27 28 29 30
000
FTUS43 KDLH 201206 AAA
TAFHIB
TAF AMD
KHIB 201206Z 2012/2112 00000KT 1/4SM FG VV002
      TEMPO 2013/2014 3SM BR BKN005
     FM201400 23005KT P6SM FEW250
      TEMPO 2014/2015 BKN018
     FM201600 28007KT P6SM FEW250
     FM210300 VRB03KT P6SM FEW250=

USA.gov is the U.S. government's official web portal to all federal, state and local government web resources and services.